Time;durP1;ratioP1;P1;durP2;ratioP2;P2;SDS_P1;SDS_P2;PMS_P1;PMS_P2;Temp;Humidity;BMP_temperature;BMP_pressure;BME280_temperature;BME280_humidity;BME280_pressure;Samples;Min_cycle;Max_cycle;Signal;HPM_P1;HPM_P2
2021/12/29 00:02:15;;;;;;;94.10;37.00;;;;;;;6.20;98.37;94416.56;5054243;28;20801;-73
2021/12/29 00:04:42;;;;;;;107.65;39.17;;;;;;;5.88;98.88;94404.78;5057555;28;20206;-73
2021/12/29 00:07:10;;;;;;;92.65;38.67;;;;;;;6.02;99.45;94417.91;5056681;28;20367;-73
2021/12/29 00:09:38;;;;;;;109.78;40.00;;;;;;;5.81;100.00;94418.41;5057611;28;20763;-72
2021/12/29 00:12:08;;;;;;;108.70;42.13;;;;;;;5.82;100.00;94425.13;5056414;28;20237;-73
2021/12/29 00:14:36;;;;;;;114.93;41.70;;;;;;;5.73;100.00;94417.78;5057125;28;20309;-72
2021/12/29 00:17:03;;;;;;;115.03;39.63;;;;;;;5.95;100.00;94411.34;5055629;28;20203;-72
2021/12/29 00:19:30;;;;;;;124.95;42.83;;;;;;;5.99;100.00;94397.78;5057157;28;20585;-72
2021/12/29 00:21:57;;;;;;;140.48;43.83;;;;;;;6.03;100.00;94399.38;5057149;28;20673;-72
2021/12/29 00:24:24;;;;;;;139.88;44.35;;;;;;;5.92;100.00;94401.38;5057689;28;20287;-72
2021/12/29 00:26:51;;;;;;;148.60;44.08;;;;;;;5.76;100.00;94395.00;5055144;28;20804;-72
2021/12/29 00:29:19;;;;;;;145.80;44.85;;;;;;;5.78;100.00;94408.41;5056885;28;20267;-72
2021/12/29 00:31:46;;;;;;;136.43;45.33;;;;;;;5.79;100.00;94410.06;5057607;28;20220;-72
2021/12/29 00:34:13;;;;;;;158.27;45.95;;;;;;;5.87;100.00;94413.22;5057615;28;20210;-72
2021/12/29 00:36:40;;;;;;;139.27;44.25;;;;;;;5.86;100.00;94404.00;5056330;28;20206;-72
2021/12/29 00:39:07;;;;;;;135.88;45.45;;;;;;;6.17;100.00;94405.75;5057627;28;20558;-73
2021/12/29 00:41:33;;;;;;;161.07;43.80;;;;;;;6.26;99.66;94403.78;5056726;28;20207;-74
2021/12/29 00:44:00;;;;;;;115.15;42.63;;;;;;;6.49;98.46;94405.66;5056985;28;20670;-73
2021/12/29 00:46:28;;;;;;;149.13;42.60;;;;;;;6.33;97.61;94399.41;5056915;28;20209;-73
2021/12/29 00:48:56;;;;;;;108.03;40.42;;;;;;;5.98;98.71;94408.75;5056457;28;20203;-74
2021/12/29 00:51:24;;;;;;;101.45;40.08;;;;;;;5.99;99.89;94410.41;5057466;28;20217;-74
2021/12/29 00:53:50;;;;;;;104.43;39.97;;;;;;;6.01;99.86;94413.72;5056013;28;20210;-73
2021/12/29 00:56:17;;;;;;;92.25;38.92;;;;;;;6.03;99.76;94411.97;5056553;28;20207;-73
2021/12/29 00:58:44;;;;;;;83.50;38.45;;;;;;;6.00;100.00;94401.97;5055789;28;20263;-73
2021/12/29 01:01:11;;;;;;;103.38;42.33;;;;;;;6.03;99.95;94396.84;5057052;28;20297;-73
2021/12/29 01:03:40;;;;;;;88.90;39.25;;;;;;;5.69;100.00;94389.28;5056889;28;20315;-74
2021/12/29 01:06:07;;;;;;;91.07;37.50;;;;;;;6.02;100.00;94390.16;5054426;28;20212;-72
2021/12/29 01:08:34;;;;;;;92.75;36.08;;;;;;;6.27;98.56;94392.00;5055426;28;20649;-72
2021/12/29 01:11:01;;;;;;;89.35;36.78;;;;;;;6.28;97.60;94389.44;5055885;28;20291;-73
2021/12/29 01:13:31;;;;;;;73.47;34.35;;;;;;;6.38;97.18;94395.06;5054548;28;20198;-72
2021/12/29 01:16:16;;;;;;;71.45;34.15;;;;;;;6.30;96.96;94386.88;5056992;28;20277;-71
2021/12/29 01:18:44;;;;;;;73.57;33.15;;;;;;;6.33;96.90;94381.75;5056836;28;20255;-71
2021/12/29 01:21:11;;;;;;;66.05;32.38;;;;;;;6.13;97.62;94380.63;5054428;28;20198;-71
2021/12/29 01:23:38;;;;;;;74.65;32.42;;;;;;;6.07;97.75;94375.72;5056851;28;20721;-73
2021/12/29 01:26:05;;;;;;;64.68;31.48;;;;;;;6.01;98.13;94375.88;5056269;28;20256;-71
2021/12/29 01:28:32;;;;;;;68.72;32.20;;;;;;;6.12;98.55;94375.59;5055406;28;20297;-71
2021/12/29 01:30:58;;;;;;;67.85;33.55;;;;;;;6.09;97.96;94373.16;5056435;28;20677;-71
2021/12/29 01:33:25;;;;;;;68.18;32.10;;;;;;;5.95;98.99;94380.25;5055959;28;20698;-72
2021/12/29 01:35:53;;;;;;;62.35;30.70;;;;;;;5.85;98.78;94372.09;5055366;28;20264;-72
2021/12/29 01:38:21;;;;;;;59.90;30.40;;;;;;;5.86;98.35;94366.19;5054482;28;20252;-73
2021/12/29 01:40:49;;;;;;;56.33;29.73;;;;;;;5.74;98.19;94369.00;5055529;28;20201;-72
2021/12/29 01:43:19;;;;;;;55.92;28.42;;;;;;;5.65;98.80;94364.22;5055128;28;20234;-72
2021/12/29 01:45:46;;;;;;;54.40;28.98;;;;;;;5.63;98.24;94365.97;5054489;28;20923;-72
2021/12/29 01:48:13;;;;;;;62.72;28.92;;;;;;;5.88;97.21;94359.41;5055636;28;20256;-72
2021/12/29 01:50:40;;;;;;;55.22;29.02;;;;;;;5.83;98.26;94361.22;5055216;28;20198;-73
2021/12/29 01:53:10;;;;;;;65.00;30.52;;;;;;;5.93;97.14;94347.53;5055374;28;20826;-72
2021/12/29 01:55:38;;;;;;;61.45;29.55;;;;;;;5.98;97.44;94340.66;5055345;28;20263;-72
2021/12/29 01:58:06;;;;;;;54.33;28.40;;;;;;;5.91;96.82;94339.19;5054619;28;20738;-71
2021/12/29 02:00:35;;;;;;;46.42;25.63;;;;;;;6.10;96.75;94339.50;5056123;28;20202;-72
2021/12/29 02:03:02;;;;;;;48.00;25.77;;;;;;;6.17;95.54;94335.13;5054403;28;20234;-72
2021/12/29 02:05:29;;;;;;;38.45;24.05;;;;;;;6.18;94.66;94325.00;5055438;28;20263;-71
2021/12/29 02:07:55;;;;;;;37.03;23.52;;;;;;;6.03;94.56;94321.19;5055000;28;20198;-73
2021/12/29 02:10:24;;;;;;;42.55;23.27;;;;;;;5.97;95.58;94320.53;5055371;28;21126;-72
2021/12/29 02:12:54;;;;;;;46.47;24.73;;;;;;;5.99;96.11;94314.56;5054246;28;20317;-72
2021/12/29 02:15:22;;;;;;;42.38;24.33;;;;;;;5.96;95.25;94302.03;5054860;28;20250;-72
2021/12/29 02:17:50;;;;;;;45.75;24.90;;;;;;;5.92;96.61;94290.41;5054899;28;20229;-72
2021/12/29 02:20:20;;;;;;;53.42;25.00;;;;;;;6.09;96.06;94283.19;5055208;28;20209;-72
2021/12/29 02:22:51;;;;;;;49.67;26.58;;;;;;;5.96;97.04;94288.59;5054492;28;20286;-72
2021/12/29 02:25:34;;;;;;;51.63;26.85;;;;;;;6.12;96.23;94289.84;5053306;28;20206;-72
2021/12/29 02:28:02;;;;;;;51.47;26.50;;;;;;;6.21;95.43;94297.13;5054037;28;20293;-72
2021/12/29 02:30:29;;;;;;;58.78;26.38;;;;;;;6.21;96.21;94291.25;5055156;28;20230;-72
2021/12/29 02:33:00;;;;;;;48.25;26.35;;;;;;;6.28;94.98;94295.25;5055375;28;20222;-72
2021/12/29 02:35:29;;;;;;;43.15;24.15;;;;;;;6.25;95.00;94292.81;5055310;28;20205;-72
2021/12/29 02:37:57;;;;;;;42.28;22.73;;;;;;;6.26;94.66;94304.56;5054204;28;20202;-72
2021/12/29 02:40:24;;;;;;;50.05;25.10;;;;;;;6.01;94.38;94294.34;5054440;28;20195;-71
2021/12/29 02:42:51;;;;;;;50.72;25.13;;;;;;;5.74;96.67;94290.88;5055246;28;20214;-72
2021/12/29 02:45:22;;;;;;;45.63;27.02;;;;;;;5.64;96.98;94297.03;5053973;28;20253;-72
2021/12/29 02:47:50;;;;;;;53.75;26.73;;;;;;;5.60;97.41;94292.94;5054296;28;20237;-72
2021/12/29 02:50:18;;;;;;;51.30;27.33;;;;;;;5.43;98.22;94290.88;5054948;28;20207;-71
2021/12/29 02:52:47;;;;;;;54.67;26.52;;;;;;;5.61;98.92;94282.00;5053441;28;20195;-71
2021/12/29 02:55:15;;;;;;;48.00;27.20;;;;;;;5.85;96.30;94283.84;5054872;28;20276;-71
2021/12/29 02:57:42;;;;;;;52.40;29.02;;;;;;;5.94;96.51;94278.56;5053714;28;20260;-71
2021/12/29 03:00:13;;;;;;;48.45;25.67;;;;;;;6.01;95.35;94282.56;5053527;28;20323;-71
2021/12/29 03:02:40;;;;;;;49.35;26.65;;;;;;;5.79;95.75;94289.88;5053390;28;20821;-71
2021/12/29 03:05:07;;;;;;;56.60;28.15;;;;;;;5.75;95.39;94282.44;5054686;28;20226;-72
2021/12/29 03:07:34;;;;;;;53.00;28.88;;;;;;;5.61;96.44;94279.47;5053675;28;20950;-72
2021/12/29 03:10:03;;;;;;;59.85;29.85;;;;;;;5.78;95.62;94279.84;5053714;28;20281;-72
2021/12/29 03:12:29;;;;;;;58.35;30.27;;;;;;;5.88;94.44;94283.78;5053846;28;20237;-72
2021/12/29 03:14:58;;;;;;;52.55;28.10;;;;;;;5.93;94.70;94266.84;5054181;28;20198;-71
2021/12/29 03:17:25;;;;;;;55.08;28.42;;;;;;;5.92;94.40;94277.81;5053567;28;20215;-71
2021/12/29 03:19:52;;;;;;;52.88;27.90;;;;;;;5.91;94.26;94281.19;5053224;28;20199;-72
2021/12/29 03:22:19;;;;;;;51.65;28.02;;;;;;;5.87;95.04;94282.13;5053631;28;20256;-72
2021/12/29 03:24:46;;;;;;;47.75;27.15;;;;;;;5.93;95.47;94266.84;5054447;28;20298;-72
2021/12/29 03:27:14;;;;;;;48.30;26.20;;;;;;;5.97;94.50;94262.53;5055105;28;20233;-72
2021/12/29 03:29:42;;;;;;;48.70;26.35;;;;;;;5.96;95.04;94258.34;5053286;28;20279;-72
2021/12/29 03:32:19;;;;;;;45.80;24.60;;;;;;;5.79;95.29;94258.81;5053723;28;20223;-72
2021/12/29 03:34:46;;;;;;;42.83;22.90;;;;;;;6.06;95.22;94267.31;5054614;28;20203;-72
2021/12/29 03:37:13;;;;;;;43.25;23.25;;;;;;;5.92;95.14;94264.38;5057017;28;20202;-72
2021/12/29 03:39:40;;;;;;;44.42;23.63;;;;;;;6.03;94.74;94258.13;5058520;28;20244;-72
2021/12/29 03:42:07;;;;;;;41.75;24.23;;;;;;;6.14;94.01;94255.31;5058418;28;20198;-72
2021/12/29 03:44:37;;;;;;;43.83;23.25;;;;;;;5.80;95.42;94257.94;5057992;28;20236;-72
2021/12/29 03:47:04;;;;;;;39.20;23.48;;;;;;;5.74;96.01;94255.56;5057544;28;20207;-72
2021/12/29 03:49:31;;;;;;;39.50;23.80;;;;;;;5.70;95.93;94254.00;5058010;28;20839;-72
2021/12/29 03:51:58;;;;;;;39.67;21.70;;;;;;;5.38;98.05;94250.69;5058072;28;20202;-71
2021/12/29 03:54:25;;;;;;;40.97;23.45;;;;;;;5.55;98.54;94239.31;5058381;28;20272;-72
2021/12/29 03:56:52;;;;;;;37.05;21.65;;;;;;;5.92;96.96;94247.53;5057964;28;20190;-72
2021/12/29 03:59:18;;;;;;;39.72;21.05;;;;;;;5.93;95.62;94246.69;5056158;28;20195;-72
2021/12/29 04:01:50;;;;;;;40.28;22.42;;;;;;;5.85;95.79;94238.47;5057355;28;20202;-73
2021/12/29 04:04:16;;;;;;;33.33;19.98;;;;;;;6.17;95.13;94244.31;5058020;28;20342;-71
2021/12/29 04:06:43;;;;;;;33.90;20.90;;;;;;;6.25;94.15;94247.41;5057393;28;20244;-72
2021/12/29 04:09:10;;;;;;;32.90;19.95;;;;;;;6.40;94.72;94241.91;5057393;28;20575;-72
2021/12/29 04:11:37;;;;;;;31.48;18.80;;;;;;;6.43;94.13;94235.06;5057783;28;20237;-73
2021/12/29 04:14:04;;;;;;;35.58;20.85;;;;;;;6.53;93.78;94243.19;5058129;28;20214;-72
2021/12/29 04:16:30;;;;;;;39.97;21.35;;;;;;;6.34;93.68;94247.16;5056856;28;20682;-72
2021/12/29 04:19:14;;;;;;;33.10;20.50;;;;;;;6.29;93.76;94243.94;5058070;28;20210;-72
2021/12/29 04:21:43;;;;;;;40.55;21.08;;;;;;;6.27;94.03;94238.94;5057574;28;20582;-72
2021/12/29 04:24:10;;;;;;;30.73;19.92;;;;;;;6.18;94.91;94243.44;5057087;28;20234;-72
2021/12/29 04:26:38;;;;;;;33.50;19.80;;;;;;;6.22;95.46;94237.41;5056680;28;20206;-72
2021/12/29 04:29:06;;;;;;;38.00;22.08;;;;;;;6.39;94.10;94241.09;5058083;28;20714;-72
2021/12/29 04:31:34;;;;;;;37.55;20.77;;;;;;;6.34;94.29;94242.09;5057245;28;20203;-72
2021/12/29 04:34:02;;;;;;;34.97;21.13;;;;;;;6.27;94.81;94245.66;5056082;28;20218;-72
2021/12/29 04:36:29;;;;;;;34.30;20.48;;;;;;;6.23;94.89;94249.16;5056970;28;20738;-72
2021/12/29 04:38:58;;;;;;;35.78;21.90;;;;;;;6.14;95.60;94245.22;5057140;28;20206;-72
2021/12/29 04:41:25;;;;;;;39.83;21.05;;;;;;;6.29;94.63;94246.44;5056988;28;20210;-72
2021/12/29 04:43:52;;;;;;;35.05;20.90;;;;;;;6.42;94.15;94247.75;5057575;28;20295;-72
2021/12/29 04:46:27;;;;;;;35.83;21.23;;;;;;;6.42;94.19;94245.22;5056967;28;20206;-72
2021/12/29 04:48:59;;;;;;;33.67;20.25;;;;;;;6.54;94.01;94249.88;5055177;28;20229;-72
2021/12/29 04:51:34;;;;;;;38.67;22.67;;;;;;;6.55;92.82;94251.53;5057619;28;20202;-72
2021/12/29 04:54:01;;;;;;;41.47;23.88;;;;;;;6.28;93.59;94262.47;5056330;28;20205;-73
2021/12/29 04:56:28;;;;;;;47.80;23.70;;;;;;;6.01;96.16;94259.03;5057211;28;20202;-71
2021/12/29 04:58:54;;;;;;;39.33;24.25;;;;;;;6.16;96.38;94258.63;5057090;28;20743;-72
2021/12/29 05:01:21;;;;;;;38.63;23.60;;;;;;;6.15;96.29;94251.91;5055393;28;20263;-71
2021/12/29 05:03:48;;;;;;;47.55;24.38;;;;;;;6.32;95.44;94264.03;5057157;28;20206;-72
2021/12/29 05:08:59;;;;;;;82.78;41.22;;;;;;;6.38;96.27;94258.81;5034458;28;20229;-73
2021/12/29 05:11:26;;;;;;;76.45;39.80;;;;;;;6.40;95.35;94254.53;5056501;28;20712;-72
2021/12/29 05:13:53;;;;;;;94.60;45.15;;;;;;;6.49;95.08;94256.75;5055726;28;20198;-72
2021/12/29 05:16:20;;;;;;;57.70;31.88;;;;;;;6.51;94.41;94260.06;5057123;28;20199;-73
2021/12/29 05:18:46;;;;;;;49.15;26.92;;;;;;;6.45;94.70;94260.25;5055309;28;21530;-72
2021/12/29 05:21:13;;;;;;;68.13;35.17;;;;;;;6.38;96.09;94266.38;5056088;28;20210;-73
2021/12/29 05:23:40;;;;;;;87.38;41.30;;;;;;;6.45;95.12;94272.88;5056374;28;20240;-72
2021/12/29 05:26:08;;;;;;;110.85;47.97;;;;;;;6.31;96.06;94272.47;5055468;28;20236;-72
2021/12/29 05:28:35;;;;;;;43.63;27.20;;;;;;;6.27;96.44;94266.69;5055881;28;20211;-73
2021/12/29 05:31:02;;;;;;;39.22;23.63;;;;;;;6.44;96.44;94269.50;5054639;28;20207;-72
2021/12/29 05:33:29;;;;;;;37.22;23.00;;;;;;;6.52;94.85;94264.25;5056568;28;20291;-73
2021/12/29 05:35:56;;;;;;;35.45;20.42;;;;;;;6.78;94.24;94264.25;5056220;28;20264;-72
2021/12/29 05:38:22;;;;;;;36.40;20.80;;;;;;;6.58;94.21;94269.09;5055289;28;20256;-72
2021/12/29 05:40:51;;;;;;;34.45;21.55;;;;;;;6.62;94.58;94258.06;5056608;28;20199;-73
2021/12/29 05:43:19;;;;;;;40.40;21.45;;;;;;;6.68;94.29;94270.47;5054330;28;20210;-73
2021/12/29 05:45:46;;;;;;;59.20;30.42;;;;;;;6.59;93.84;94268.25;5055520;28;20744;-72
2021/12/29 05:48:13;;;;;;;48.42;28.10;;;;;;;6.56;96.01;94260.75;5056751;28;20730;-72
2021/12/29 05:50:39;;;;;;;40.53;23.38;;;;;;;6.22;96.30;94265.16;5055110;28;20296;-73
2021/12/29 05:53:06;;;;;;;40.03;21.25;;;;;;;6.14;97.63;94266.22;5055258;28;20647;-72
2021/12/29 05:55:33;;;;;;;40.80;20.67;;;;;;;6.31;97.46;94269.94;5056135;28;20207;-72
2021/12/29 05:58:00;;;;;;;37.72;21.88;;;;;;;6.48;96.60;94265.19;5055892;28;20202;-73
2021/12/29 06:00:29;;;;;;;36.72;21.45;;;;;;;6.69;95.89;94268.75;5055082;28;20276;-73
2021/12/29 06:02:56;;;;;;;38.33;21.50;;;;;;;6.83;94.56;94261.59;5056026;28;20260;-73
2021/12/29 06:05:24;;;;;;;43.65;23.48;;;;;;;6.81;93.91;94259.13;5056717;28;20298;-73
2021/12/29 06:07:51;;;;;;;230.55;119.30;;;;;;;6.94;94.05;94253.66;5054987;28;20202;-76
2021/12/29 06:10:17;;;;;;;48.70;26.83;;;;;;;6.71;95.38;94262.78;5055276;28;20199;-74
2021/12/29 06:12:44;;;;;;;40.00;22.83;;;;;;;6.89;95.26;94261.41;5055156;28;20291;-74
2021/12/29 06:15:11;;;;;;;35.15;22.38;;;;;;;7.05;94.09;94264.25;5054721;28;20195;-73
2021/12/29 06:17:40;;;;;;;39.50;21.88;;;;;;;7.04;94.58;94265.13;5055101;28;20252;-72
2021/12/29 06:20:10;;;;;;;39.60;23.50;;;;;;;6.93;93.37;94267.19;5053761;28;20733;-72
2021/12/29 06:22:37;;;;;;;37.72;21.75;;;;;;;6.87;94.81;94269.91;5054310;28;20264;-74
2021/12/29 06:25:04;;;;;;;39.22;21.23;;;;;;;6.85;95.18;94279.22;5054694;28;20233;-74
2021/12/29 06:27:32;;;;;;;40.13;22.30;;;;;;;6.83;95.76;94289.38;5054205;28;20633;-74
2021/12/29 06:29:59;;;;;;;36.58;22.13;;;;;;;6.89;95.04;94281.59;5054320;28;20230;-72
2021/12/29 06:32:26;;;;;;;42.13;23.25;;;;;;;6.86;95.12;94288.44;5055052;28;20365;-71
2021/12/29 06:34:55;;;;;;;40.83;21.48;;;;;;;6.81;95.38;94291.94;5053654;28;20199;-72
2021/12/29 06:37:22;;;;;;;43.10;21.77;;;;;;;6.82;95.60;94298.66;5055375;28;20206;-72
2021/12/29 06:39:48;;;;;;;40.78;22.85;;;;;;;6.88;95.81;94299.34;5054460;28;20202;-71
2021/12/29 06:42:16;;;;;;;39.15;22.40;;;;;;;6.99;96.00;94293.03;5053613;28;20199;-72
2021/12/29 06:44:44;;;;;;;40.40;23.75;;;;;;;6.90;96.06;94293.38;5055100;28;20230;-72
2021/12/29 06:47:11;;;;;;;35.13;22.77;;;;;;;7.18;95.25;94298.31;5055209;28;20202;-72
2021/12/29 06:49:38;;;;;;;34.58;22.10;;;;;;;7.37;94.08;94298.56;5054607;28;21104;-72
2021/12/29 06:52:09;;;;;;;37.85;22.65;;;;;;;7.20;94.50;94301.63;5053439;28;20280;-71
2021/12/29 06:54:36;;;;;;;36.83;21.92;;;;;;;7.26;95.50;94306.50;5054289;28;20273;-72
2021/12/29 06:57:04;;;;;;;44.65;23.80;;;;;;;7.36;94.25;94291.88;5053524;28;20716;-72
2021/12/29 06:59:31;;;;;;;46.95;24.67;;;;;;;7.24;95.36;94298.13;5053616;28;20252;-72
2021/12/29 07:01:58;;;;;;;45.30;23.80;;;;;;;7.09;94.87;94303.69;5055197;28;20630;-72
2021/12/29 07:04:26;;;;;;;44.78;24.70;;;;;;;6.97;95.36;94299.84;5054817;28;20214;-73
2021/12/29 07:06:53;;;;;;;45.95;25.83;;;;;;;6.92;95.27;94305.94;5053135;28;20268;-72
2021/12/29 07:09:22;;;;;;;41.97;25.67;;;;;;;7.23;96.10;94300.72;5055000;28;20218;-73
2021/12/29 07:11:49;;;;;;;57.10;29.83;;;;;;;7.37;95.23;94309.50;5053584;28;20239;-73
2021/12/29 07:14:16;;;;;;;65.55;33.67;;;;;;;7.49;94.71;94309.06;5053797;28;20210;-73
2021/12/29 07:16:44;;;;;;;56.50;31.23;;;;;;;7.56;93.02;94311.41;5055073;28;20731;-72
2021/12/29 07:19:11;;;;;;;58.40;32.63;;;;;;;7.56;94.32;94317.28;5054424;28;20280;-71
2021/12/29 07:21:38;;;;;;;62.97;34.08;;;;;;;7.45;93.34;94314.28;5053213;28;20205;-72
2021/12/29 07:24:06;;;;;;;66.38;35.25;;;;;;;7.21;95.20;94310.88;5053642;28;20260;-72
2021/12/29 07:26:35;;;;;;;59.78;31.88;;;;;;;7.56;94.75;94313.94;5054618;28;21774;-72
2021/12/29 07:29:03;;;;;;;53.60;29.90;;;;;;;7.83;92.60;94308.75;5054312;28;20272;-73
2021/12/29 07:31:32;;;;;;;52.40;31.02;;;;;;;7.76;93.33;94312.38;5053742;28;20276;-73
2021/12/29 07:33:59;;;;;;;69.07;35.42;;;;;;;7.65;93.36;94319.53;5054109;28;20279;-74
2021/12/29 07:36:26;;;;;;;73.70;35.45;;;;;;;7.77;93.14;94320.78;5054457;28;20199;-73
2021/12/29 07:38:53;;;;;;;61.95;34.17;;;;;;;7.66;93.18;94300.13;5054036;28;20191;-73
2021/12/29 07:41:19;;;;;;;55.63;31.73;;;;;;;7.77;93.84;94308.97;5034400;28;20263;-73
2021/12/29 07:43:50;;;;;;;53.45;30.27;;;;;;;7.89;93.88;94317.84;5054628;28;20271;-72
2021/12/29 07:46:17;;;;;;;58.22;32.28;;;;;;;7.88;93.12;94313.66;5052952;28;20881;-72
2021/12/29 07:48:44;;;;;;;53.42;30.13;;;;;;;8.01;92.64;94309.81;5053422;28;20235;-71
2021/12/29 07:51:11;;;;;;;55.80;28.60;;;;;;;7.80;93.55;94313.09;5053438;28;20252;-74
2021/12/29 07:53:38;;;;;;;52.58;28.67;;;;;;;7.69;95.08;94315.16;5053316;28;20214;-73
2021/12/29 07:56:06;;;;;;;45.17;25.58;;;;;;;7.70;94.43;94315.09;5053811;28;20202;-72
2021/12/29 07:58:33;;;;;;;48.33;25.95;;;;;;;7.79;94.38;94306.38;5052911;28;20299;-72
2021/12/29 08:01:02;;;;;;;46.17;27.20;;;;;;;7.78;94.69;94314.84;5052646;28;20256;-73
2021/12/29 08:03:29;;;;;;;44.63;25.70;;;;;;;7.84;95.17;94319.69;5052663;28;20194;-73
2021/12/29 08:05:56;;;;;;;41.25;24.15;;;;;;;7.97;93.85;94318.38;5053644;28;20283;-72
2021/12/29 08:08:23;;;;;;;40.55;24.08;;;;;;;7.78;94.63;94315.69;5035976;28;20202;-73
2021/12/29 08:10:50;;;;;;;45.03;24.02;;;;;;;7.73;95.66;94314.19;5053752;28;20530;-73
2021/12/29 08:13:17;;;;;;;45.60;23.92;;;;;;;7.88;94.71;94311.13;5053337;28;20226;-72
2021/12/29 08:15:44;;;;;;;44.55;25.60;;;;;;;7.91;94.74;94308.50;5053440;28;20685;-73
2021/12/29 08:18:12;;;;;;;43.33;24.13;;;;;;;8.06;94.09;94314.72;5054499;28;20207;-72
2021/12/29 08:20:39;;;;;;;43.45;23.92;;;;;;;8.15;93.60;94315.22;5052842;28;20206;-72
2021/12/29 08:23:08;;;;;;;49.03;25.45;;;;;;;8.03;94.59;94313.09;5054311;28;20203;-72
2021/12/29 08:25:35;;;;;;;44.35;25.17;;;;;;;7.94;95.07;94315.94;5058207;28;20283;-72
2021/12/29 08:28:03;;;;;;;44.58;24.65;;;;;;;8.10;94.01;94311.19;5055406;28;20255;-72
2021/12/29 08:30:30;;;;;;;46.58;24.95;;;;;;;8.28;93.42;94304.63;5056691;28;20252;-72
2021/12/29 08:32:57;;;;;;;46.33;26.38;;;;;;;8.34;92.62;94309.50;5056419;28;20222;-73
2021/12/29 08:35:27;;;;;;;47.35;26.15;;;;;;;8.27;93.02;94310.56;5057223;28;20191;-72
2021/12/29 08:37:54;;;;;;;46.17;25.05;;;;;;;8.09;94.27;94307.84;5056499;28;20573;-73
2021/12/29 08:40:21;;;;;;;47.15;25.00;;;;;;;8.27;93.74;94313.09;5057154;28;20203;-72
2021/12/29 08:42:48;;;;;;;46.13;25.10;;;;;;;8.26;94.22;94311.44;5057145;28;20263;-72
2021/12/29 08:45:17;;;;;;;44.60;25.92;;;;;;;8.34;93.91;94306.97;5056626;28;20229;-72
2021/12/29 08:47:45;;;;;;;56.03;30.42;;;;;;;8.41;93.52;94311.72;5057565;28;20210;-73
2021/12/29 08:50:16;;;;;;;50.10;30.17;;;;;;;8.39;93.38;94312.69;5057277;28;20263;-72
2021/12/29 08:52:44;;;;;;;58.42;30.60;;;;;;;8.32;94.31;94309.56;5057049;28;20214;-71
2021/12/29 08:55:13;;;;;;;57.53;30.75;;;;;;;8.37;94.50;94305.16;5055787;28;20191;-72
2021/12/29 08:57:40;;;;;;;54.58;30.15;;;;;;;8.34;94.59;94304.44;5057767;28;20269;-72
2021/12/29 09:00:10;;;;;;;53.90;29.30;;;;;;;8.39;94.96;94307.63;5056677;28;20241;-73
2021/12/29 09:02:37;;;;;;;56.60;30.27;;;;;;;8.40;94.85;94300.00;5051355;28;20228;-72
2021/12/29 09:05:06;;;;;;;51.58;29.98;;;;;;;8.30;94.82;94298.63;5056628;28;20285;-72
2021/12/29 09:07:32;;;;;;;63.83;30.75;;;;;;;8.31;95.17;94297.75;5055678;28;20199;-72
2021/12/29 09:10:03;;;;;;;47.83;28.25;;;;;;;8.44;94.56;94293.06;5055860;28;20210;-72
2021/12/29 09:12:30;;;;;;;49.85;27.80;;;;;;;8.45;93.78;94285.41;5055998;28;20253;-72
2021/12/29 09:14:57;;;;;;;54.42;29.52;;;;;;;8.46;93.69;94281.19;5057136;28;20290;-72
2021/12/29 09:17:24;;;;;;;52.70;29.45;;;;;;;8.53;93.93;94285.97;5053848;28;20202;-72
2021/12/29 09:19:51;;;;;;;42.95;25.40;;;;;;;8.53;93.99;94275.84;5053883;28;20195;-74
2021/12/29 09:22:18;;;;;;;60.17;29.75;;;;;;;8.79;92.66;94277.38;5054383;28;21187;-73
2021/12/29 09:24:46;;;;;;;60.67;29.42;;;;;;;8.45;93.62;94272.75;5055084;28;20685;-73
2021/12/29 09:27:15;;;;;;;55.97;27.98;;;;;;;8.39;94.57;94269.66;5055063;28;20519;-71
2021/12/29 09:29:42;;;;;;;48.47;27.33;;;;;;;8.61;93.07;94262.88;5056011;28;20214;-73
2021/12/29 09:32:09;;;;;;;55.45;28.23;;;;;;;8.77;92.11;94263.09;5055205;28;20272;-72
2021/12/29 09:34:35;;;;;;;51.30;27.27;;;;;;;8.80;91.70;94252.84;5055204;28;20199;-72
2021/12/29 09:37:04;;;;;;;51.72;26.35;;;;;;;8.74;91.87;94256.44;5055181;28;20206;-72
2021/12/29 09:39:31;;;;;;;50.58;27.15;;;;;;;8.45;93.25;94249.16;5055509;28;20198;-73
2021/12/29 09:41:59;;;;;;;51.30;27.77;;;;;;;8.32;94.03;94250.47;5055366;28;20635;-72
2021/12/29 09:44:28;;;;;;;53.65;28.92;;;;;;;8.24;95.30;94253.28;5055619;28;20202;-72
2021/12/29 09:46:54;;;;;;;52.35;28.52;;;;;;;8.35;95.26;94250.41;5056396;28;20670;-73
2021/12/29 09:49:22;;;;;;;55.05;28.05;;;;;;;8.19;95.97;94245.03;5055424;28;20208;-72
2021/12/29 09:51:50;;;;;;;57.70;31.50;;;;;;;8.00;97.32;94246.59;5055403;28;20286;-73
2021/12/29 09:54:17;;;;;;;58.95;30.75;;;;;;;8.15;97.26;94248.59;5055033;28;20210;-72
2021/12/29 09:56:46;;;;;;;54.33;30.70;;;;;;;8.30;97.13;94239.59;5055836;28;20207;-73
2021/12/29 09:59:12;;;;;;;61.83;34.45;;;;;;;8.47;96.56;94238.09;5054617;28;20210;-72
2021/12/29 10:01:41;;;;;;;61.58;33.13;;;;;;;8.59;96.11;94236.78;5054374;28;20300;-72
2021/12/29 10:04:07;;;;;;;75.80;37.70;;;;;;;8.69;96.17;94240.59;5054403;28;20706;-73
2021/12/29 10:06:34;;;;;;;70.60;38.80;;;;;;;8.38;98.12;94235.09;5055809;28;20237;-75
2021/12/29 10:09:10;;;;;;;69.68;37.42;;;;;;;8.33;98.56;94236.97;5054242;28;20356;-73
2021/12/29 10:11:37;;;;;;;72.10;39.65;;;;;;;8.46;98.07;94233.91;5055124;28;20233;-73
2021/12/29 10:14:09;;;;;;;73.50;42.35;;;;;;;8.62;96.64;94228.25;5054629;28;20292;-73
2021/12/29 10:16:36;;;;;;;80.25;45.90;;;;;;;8.34;97.17;94221.72;5054575;28;20695;-73
2021/12/29 10:19:07;;;;;;;89.80;47.03;;;;;;;8.63;96.43;94219.78;5054526;28;21290;-72
2021/12/29 10:21:35;;;;;;;87.55;46.60;;;;;;;8.67;96.14;94222.09;5055355;28;20267;-72
2021/12/29 10:24:04;;;;;;;95.70;49.53;;;;;;;8.51;96.78;94221.06;5055332;28;20202;-72
2021/12/29 10:26:33;;;;;;;93.90;50.40;;;;;;;8.29;97.62;94215.16;5053611;28;20222;-72
2021/12/29 10:29:03;;;;;;;86.30;51.08;;;;;;;8.42;97.23;94226.47;5055685;28;20203;-72
2021/12/29 10:31:32;;;;;;;93.90;53.35;;;;;;;8.48;97.35;94211.88;5055457;28;20190;-73
2021/12/29 10:34:05;;;;;;;105.18;55.35;;;;;;;8.48;97.40;94211.06;5053675;28;20242;-73
2021/12/29 10:36:35;;;;;;;101.60;56.28;;;;;;;8.41;97.35;94209.66;5054555;28;20194;-73
2021/12/29 10:39:11;;;;;;;107.03;56.80;;;;;;;8.39;98.00;94208.91;5054761;28;20737;-73
2021/12/29 10:41:47;;;;;;;102.40;56.88;;;;;;;8.42;98.22;94203.69;5053470;28;20260;-73
2021/12/29 10:44:16;;;;;;;110.45;54.70;;;;;;;8.38;98.42;94202.19;5055341;28;20202;-73
2021/12/29 10:46:43;;;;;;;100.55;56.95;;;;;;;8.42;98.66;94201.97;5053367;28;20680;-73
2021/12/29 10:49:11;;;;;;;98.88;51.83;;;;;;;8.53;98.84;94199.03;5052997;28;20770;-72
2021/12/29 10:51:42;;;;;;;110.28;55.58;;;;;;;8.59;97.79;94196.28;5055313;28;20281;-73
2021/12/29 10:54:13;;;;;;;103.43;54.05;;;;;;;8.59;97.28;94195.47;5053428;28;20289;-72
2021/12/29 10:56:41;;;;;;;96.57;51.75;;;;;;;8.71;96.65;94193.25;5054543;28;20209;-71
2021/12/29 10:59:19;;;;;;;94.53;47.90;;;;;;;8.53;96.88;94196.50;5053369;28;20195;-72
2021/12/29 11:01:46;;;;;;;83.28;45.03;;;;;;;8.54;97.54;94190.56;5055356;28;20284;-72
2021/12/29 11:04:16;;;;;;;91.63;46.72;;;;;;;8.43;98.29;94192.69;5053621;28;20213;-72
2021/12/29 11:06:46;;;;;;;86.63;44.80;;;;;;;8.26;99.36;94184.91;5053360;28;20283;-72
2021/12/29 11:09:15;;;;;;;83.47;44.33;;;;;;;8.37;99.55;94178.59;5054547;28;20248;-72
2021/12/29 11:11:44;;;;;;;89.53;44.30;;;;;;;8.35;98.92;94180.34;5053596;28;20295;-72
2021/12/29 11:14:14;;;;;;;86.90;44.47;;;;;;;8.38;98.39;94175.16;5053909;28;20203;-72
2021/12/29 11:16:42;;;;;;;80.90;41.40;;;;;;;8.51;98.44;94181.38;5054360;28;20207;-72
2021/12/29 11:19:10;;;;;;;72.80;42.83;;;;;;;8.57;98.54;94170.19;5052962;28;20215;-72
2021/12/29 11:21:42;;;;;;;85.60;42.28;;;;;;;8.39;98.76;94176.00;5054762;28;20203;-72
2021/12/29 11:24:14;;;;;;;81.00;42.33;;;;;;;8.34;98.98;94175.34;5053614;28;20206;-72
2021/12/29 11:26:41;;;;;;;83.93;42.95;;;;;;;8.39;98.62;94148.16;5053730;28;20234;-72
2021/12/29 11:29:10;;;;;;;77.38;41.90;;;;;;;8.55;97.92;94169.44;5054300;28;20319;-72
2021/12/29 11:31:42;;;;;;;82.38;41.85;;;;;;;8.62;97.50;94157.34;5052206;28;20207;-72